Time;durP1;ratioP1;P1;durP2;ratioP2;P2;SDS_P1;SDS_P2;PMS_P1;PMS_P2;Temp;Humidity;BMP_temperature;BMP_pressure;BME280_temperature;BME280_humidity;BME280_pressure;Samples;Min_cycle;Max_cycle;Signal;HPM_P1;HPM_P2
2020/12/01 00:00:19;;;;;;;0.20;0.10;;;;;;;2.18;100.00;100406.50;5072557;28;20456;-54
2020/12/01 00:02:47;;;;;;;0.30;0.10;;;;;;;2.13;100.00;100395.13;5072434;28;20446;-54
2020/12/01 00:05:15;;;;;;;0.20;0.10;;;;;;;2.18;100.00;100397.75;5058712;28;20544;-54
2020/12/01 00:07:41;;;;;;;0.20;0.10;;;;;;;2.03;100.00;100382.81;5072171;28;20489;-53
2020/12/01 00:10:12;;;;;;;0.20;0.10;;;;;;;2.07;100.00;100380.22;5059331;28;20449;-54
2020/12/01 00:12:43;;;;;;;0.20;0.10;;;;;;;2.06;100.00;100370.63;5072406;28;20935;-54
2020/12/01 00:15:11;;;;;;;0.20;0.10;;;;;;;2.21;100.00;100361.97;5072384;28;21002;-54
2020/12/01 00:17:37;;;;;;;0.20;0.10;;;;;;;2.27;100.00;100351.50;5069347;28;21009;-53
2020/12/01 00:20:06;;;;;;;0.20;0.10;;;;;;;2.12;100.00;100353.16;5057905;28;20586;-53
2020/12/01 00:22:32;;;;;;;0.43;0.43;;;;;;;2.03;100.00;100343.47;5072218;28;20445;-53
2020/12/01 00:24:59;;;;;;;0.20;0.10;;;;;;;1.95;100.00;100346.06;5072288;28;20943;-53
2020/12/01 00:27:26;;;;;;;0.20;0.10;;;;;;;1.99;100.00;100341.72;5071960;28;20477;-53
2020/12/01 00:29:52;;;;;;;0.20;0.10;;;;;;;2.19;100.00;100340.09;5072176;28;20461;-54
2020/12/01 00:32:18;;;;;;;0.20;0.10;;;;;;;2.24;100.00;100345.38;5072094;28;20449;-54
2020/12/01 00:34:45;;;;;;;0.20;0.10;;;;;;;2.37;100.00;100350.69;5047974;28;20463;-54
2020/12/01 00:37:12;;;;;;;0.20;0.10;;;;;;;2.16;100.00;100350.56;5061710;28;20489;-54
2020/12/01 00:39:38;;;;;;;0.20;0.10;;;;;;;2.01;100.00;100346.09;5063914;28;20455;-54
2020/12/01 00:42:04;;;;;;;0.20;0.10;;;;;;;1.96;100.00;100345.19;5072030;28;20503;-54
2020/12/01 00:44:30;;;;;;;0.40;0.23;;;;;;;1.97;100.00;100349.56;5065929;28;20459;-55
2020/12/01 00:46:56;;;;;;;0.20;0.10;;;;;;;1.93;100.00;100341.69;5071858;28;20494;-54
2020/12/01 00:49:23;;;;;;;0.20;0.20;;;;;;;1.95;100.00;100346.06;5071911;28;20513;-55
2020/12/01 00:51:49;;;;;;;0.60;0.60;;;;;;;1.98;100.00;100337.34;5071697;28;20457;-54
2020/12/01 00:54:17;;;;;;;0.20;0.10;;;;;;;1.91;100.00;100336.41;5059900;28;20483;-54
2020/12/01 00:56:43;;;;;;;0.20;0.10;;;;;;;1.99;100.00;100321.63;5072170;28;20557;-55
2020/12/01 00:59:10;;;;;;;0.20;0.10;;;;;;;2.08;100.00;100319.06;5072059;28;20442;-54
2020/12/01 01:01:36;;;;;;;0.30;0.10;;;;;;;2.00;100.00;100302.41;5072075;28;20476;-54
2020/12/01 01:04:03;;;;;;;4.37;2.90;;;;;;;2.15;100.00;100305.97;5071601;28;21000;-55
2020/12/01 01:06:29;;;;;;;0.20;0.10;;;;;;;2.05;100.00;100302.41;5071762;28;20450;-55
2020/12/01 01:08:55;;;;;;;0.20;0.10;;;;;;;1.94;100.00;100299.75;5071679;28;20485;-53
2020/12/01 01:11:32;;;;;;;0.20;0.20;;;;;;;2.03;100.00;100291.94;5061662;28;20450;-54
2020/12/01 01:14:01;;;;;;;0.20;0.10;;;;;;;2.24;100.00;100295.56;5064548;28;20485;-54
2020/12/01 01:16:27;;;;;;;0.27;0.17;;;;;;;2.40;100.00;100299.13;5053268;28;20950;-56
2020/12/01 01:18:53;;;;;;;0.20;0.10;;;;;;;1.87;100.00;100282.22;5071266;28;20477;-55
2020/12/01 01:21:23;;;;;;;0.20;0.10;;;;;;;1.89;100.00;100277.00;5071975;28;20479;-55
2020/12/01 01:23:51;;;;;;;0.20;0.10;;;;;;;2.01;100.00;100279.69;5059083;28;20461;-54
2020/12/01 01:26:18;;;;;;;0.20;0.10;;;;;;;2.32;100.00;100285.97;5071746;28;20453;-54
2020/12/01 01:28:44;;;;;;;0.20;0.10;;;;;;;2.06;100.00;100278.88;5045061;28;20486;-54
2020/12/01 01:31:11;;;;;;;0.20;0.10;;;;;;;2.16;100.00;100279.78;5071847;28;20493;-56
2020/12/01 01:33:37;;;;;;;0.20;0.10;;;;;;;2.26;100.00;100271.09;5071440;28;20454;-56
2020/12/01 01:36:03;;;;;;;0.20;0.13;;;;;;;2.25;100.00;100271.09;5067216;28;20997;-55
2020/12/01 01:38:29;;;;;;;0.20;0.10;;;;;;;2.22;100.00;100271.06;5065061;28;20461;-55
2020/12/01 01:40:57;;;;;;;0.20;0.10;;;;;;;2.27;100.00;100271.97;5071997;28;20500;-54
2020/12/01 01:43:23;;;;;;;0.30;0.20;;;;;;;2.34;100.00;100269.38;5064898;28;20469;-53
2020/12/01 01:45:50;;;;;;;0.20;0.10;;;;;;;2.04;100.00;100264.84;5059788;28;20458;-54
2020/12/01 01:48:23;;;;;;;0.20;0.10;;;;;;;2.04;100.00;100264.84;5071208;28;20875;-55
2020/12/01 01:50:58;;;;;;;0.20;0.10;;;;;;;2.21;100.00;100259.72;5074105;28;20442;-54
2020/12/01 01:53:25;;;;;;;0.20;0.20;;;;;;;2.12;100.00;100258.78;5074980;28;20938;-54
2020/12/01 01:55:57;;;;;;;0.30;0.10;;;;;;;2.11;100.00;100257.03;5074907;28;20814;-55
2020/12/01 01:58:28;;;;;;;0.30;0.30;;;;;;;1.96;100.00;100250.84;5048174;28;20998;-54
2020/12/01 02:01:02;;;;;;;0.20;0.10;;;;;;;2.05;100.00;100240.38;5074731;28;20450;-55
2020/12/01 02:03:48;;;;;;;0.83;0.83;;;;;;;2.00;100.00;100241.25;5074909;28;20958;-54
2020/12/01 02:06:18;;;;;;;0.20;0.10;;;;;;;2.04;100.00;100235.13;5074989;28;20450;-54
2020/12/01 02:08:52;;;;;;;0.20;0.10;;;;;;;2.23;100.00;100239.63;5074687;28;20477;-54
2020/12/01 02:11:20;;;;;;;0.20;0.10;;;;;;;2.16;100.00;100229.09;5062938;28;20438;-55
2020/12/01 02:14:15;;;;;;;0.20;0.10;;;;;;;1.99;100.00;100226.38;5057098;28;20450;-55
2020/12/01 02:16:52;;;;;;;0.20;0.10;;;;;;;2.03;100.00;100226.41;5057273;28;20554;-55
2020/12/01 02:19:22;;;;;;;0.20;0.10;;;;;;;2.22;100.00;100226.50;5068174;28;20801;-53
2020/12/01 02:21:48;;;;;;;0.20;0.10;;;;;;;2.16;100.00;100223.84;5074200;28;20954;-54
2020/12/01 02:24:20;;;;;;;0.20;0.10;;;;;;;2.07;100.00;100216.81;5074645;28;20453;-54
2020/12/01 02:26:53;;;;;;;0.20;0.10;;;;;;;2.11;100.00;100204.59;5061661;28;20997;-54
2020/12/01 02:29:25;;;;;;;0.20;0.20;;;;;;;2.11;100.00;100201.97;5070724;28;20986;-54
2020/12/01 02:31:51;;;;;;;0.20;0.10;;;;;;;2.21;100.00;100203.78;5074198;28;20461;-55
2020/12/01 02:34:21;;;;;;;0.20;0.20;;;;;;;2.09;100.00;100204.59;5074507;28;20480;-54
2020/12/01 02:36:47;;;;;;;0.20;0.20;;;;;;;2.01;100.00;100199.31;5064712;28;20463;-54
2020/12/01 02:39:18;;;;;;;0.20;0.10;;;;;;;1.93;100.00;100184.44;5048263;28;20962;-54
2020/12/01 02:41:44;;;;;;;0.30;0.20;;;;;;;1.94;100.00;100189.69;5074496;28;20478;-54
2020/12/01 02:44:10;;;;;;;0.83;0.83;;;;;;;1.86;100.00;100185.25;5072349;28;20445;-55
2020/12/01 02:46:37;;;;;;;0.20;0.10;;;;;;;1.81;100.00;100182.63;5073907;28;20535;-54
2020/12/01 02:49:05;;;;;;;0.53;0.50;;;;;;;1.84;100.00;100181.75;5074271;28;20489;-54
2020/12/01 02:51:33;;;;;;;0.20;0.20;;;;;;;1.97;100.00;100181.81;5074102;28;20477;-55
2020/12/01 02:54:00;;;;;;;0.20;0.10;;;;;;;1.96;100.00;100177.47;5039601;28;20468;-55
2020/12/01 02:56:26;;;;;;;0.20;0.10;;;;;;;1.89;100.00;100173.03;5060498;28;20457;-55
2020/12/01 02:58:52;;;;;;;0.20;0.10;;;;;;;1.83;100.00;100173.03;5047241;28;20450;-56
2020/12/01 03:01:19;;;;;;;0.30;0.20;;;;;;;1.91;100.00;100167.81;5046744;28;20559;-56
2020/12/01 03:03:45;;;;;;;0.20;0.10;;;;;;;1.81;100.00;100168.66;5073950;28;20446;-56
2020/12/01 03:06:13;;;;;;;0.20;0.10;;;;;;;1.82;100.00;100166.03;5073725;28;20454;-55
2020/12/01 03:08:41;;;;;;;0.20;0.10;;;;;;;1.77;100.00;100167.75;5048223;28;20852;-55
2020/12/01 03:11:08;;;;;;;0.30;0.30;;;;;;;1.89;100.00;100170.41;5073316;28;20529;-55
2020/12/01 03:13:35;;;;;;;0.20;0.10;;;;;;;1.86;100.00;100159.06;5073164;28;20450;-55
2020/12/01 03:16:06;;;;;;;0.73;0.73;;;;;;;1.86;100.00;100161.69;5064557;28;20459;-55
2020/12/01 03:18:39;;;;;;;0.20;0.10;;;;;;;1.83;100.00;100165.16;5073267;28;20462;-55
2020/12/01 03:21:07;;;;;;;0.20;0.10;;;;;;;1.88;100.00;100162.56;5073306;28;20811;-55
2020/12/01 03:23:33;;;;;;;0.20;0.17;;;;;;;1.87;100.00;100158.19;5073279;28;20457;-55
2020/12/01 03:26:01;;;;;;;0.20;0.10;;;;;;;1.88;100.00;100146.84;5067135;28;20964;-55
2020/12/01 03:28:28;;;;;;;0.20;0.10;;;;;;;1.90;100.00;100143.34;5073134;28;20517;-55
2020/12/01 03:30:55;;;;;;;0.20;0.10;;;;;;;1.88;100.00;100142.47;5073238;28;21128;-56
2020/12/01 03:33:22;;;;;;;0.20;0.10;;;;;;;1.87;100.00;100142.47;5073693;28;20445;-55
2020/12/01 03:35:49;;;;;;;0.30;0.20;;;;;;;1.91;100.00;100142.47;5071445;28;20996;-55
2020/12/01 03:38:16;;;;;;;0.20;0.20;;;;;;;1.86;100.00;100135.47;5053101;28;20835;-55
2020/12/01 03:40:42;;;;;;;0.20;0.13;;;;;;;1.86;100.00;100133.72;5068073;28;20452;-56
2020/12/01 03:43:08;;;;;;;0.20;0.10;;;;;;;1.92;100.00;100125.00;5064869;28;20539;-56
2020/12/01 03:45:35;;;;;;;0.20;0.10;;;;;;;1.94;100.00;100121.53;5071465;28;20461;-56
2020/12/01 03:48:01;;;;;;;0.20;0.10;;;;;;;1.97;100.00;100123.28;5073021;28;20490;-56
2020/12/01 03:50:28;;;;;;;0.20;0.10;;;;;;;1.96;100.00;100125.03;5072645;28;20450;-56
2020/12/01 03:52:55;;;;;;;0.20;0.10;;;;;;;1.90;100.00;100114.50;5073229;28;20511;-56
2020/12/01 03:55:23;;;;;;;0.20;0.10;;;;;;;1.92;100.00;100111.91;5072670;28;20504;-55
2020/12/01 03:57:49;;;;;;;0.20;0.10;;;;;;;1.86;100.00;100107.53;5046576;28;20475;-55
2020/12/01 04:00:20;;;;;;;0.20;0.10;;;;;;;1.87;100.00;100108.41;5068498;28;20962;-55
2020/12/01 04:02:47;;;;;;;0.20;0.10;;;;;;;1.90;100.00;100103.16;5072736;28;20445;-56
2020/12/01 04:05:15;;;;;;;0.20;0.10;;;;;;;1.86;100.00;100101.41;5072438;28;20446;-56
2020/12/01 04:07:42;;;;;;;0.20;0.20;;;;;;;1.90;100.00;100097.91;5054468;28;20535;-56
2020/12/01 04:10:10;;;;;;;0.30;0.10;;;;;;;1.90;100.00;100106.66;5070087;28;20864;-55
2020/12/01 04:12:36;;;;;;;0.20;0.10;;;;;;;1.88;100.00;100099.66;5058736;28;20959;-55
2020/12/01 04:15:02;;;;;;;0.20;0.10;;;;;;;1.86;100.00;100102.28;5072288;28;20450;-55
2020/12/01 04:17:29;;;;;;;0.20;0.10;;;;;;;1.88;100.00;100094.41;5072323;28;20476;-54
2020/12/01 04:19:55;;;;;;;0.20;0.10;;;;;;;1.85;100.00;100100.53;5072379;28;20446;-55
2020/12/01 04:22:21;;;;;;;0.60;0.60;;;;;;;1.85;100.00;100092.66;5065142;28;20835;-54
2020/12/01 04:24:47;;;;;;;0.20;0.10;;;;;;;1.85;100.00;100084.81;5072336;28;20449;-53
2020/12/01 04:27:15;;;;;;;0.20;0.10;;;;;;;1.86;100.00;100081.31;5072503;28;20474;-53
2020/12/01 04:29:42;;;;;;;0.20;0.10;;;;;;;1.79;100.00;100082.19;5071736;28;20493;-53
2020/12/01 04:32:09;;;;;;;0.20;0.10;;;;;;;1.74;100.00;100076.03;5072273;28;20452;-55
2020/12/01 04:34:35;;;;;;;0.20;0.10;;;;;;;1.73;100.00;100074.28;5045684;28;20462;-55
2020/12/01 04:37:03;;;;;;;0.20;0.10;;;;;;;1.83;100.00;100076.06;5050897;28;21062;-55
2020/12/01 04:39:29;;;;;;;0.20;0.10;;;;;;;1.82;100.00;100076.06;5058754;28;20449;-55
2020/12/01 04:41:56;;;;;;;0.20;0.10;;;;;;;1.83;100.00;100078.69;5040696;28;20542;-55
2020/12/01 04:44:30;;;;;;;0.20;0.10;;;;;;;1.79;100.00;100076.94;5036668;28;20459;-55
2020/12/01 04:47:05;;;;;;;0.20;0.10;;;;;;;1.80;100.00;100075.19;5037976;28;20493;-55
2020/12/01 04:49:45;;;;;;;0.20;0.10;;;;;;;1.82;100.00;100066.47;5048127;28;20898;-56
2020/12/01 04:52:32;;;;;;;0.20;0.10;;;;;;;1.80;100.00;100069.97;5039345;28;20457;-54
2020/12/01 04:55:19;;;;;;;0.20;0.10;;;;;;;1.81;100.00;100069.09;5047842;28;20460;-54
2020/12/01 04:58:07;;;;;;;0.20;0.10;;;;;;;1.82;100.00;100071.72;5038554;28;20479;-54
2020/12/01 05:01:14;;;;;;;0.20;0.10;;;;;;;1.80;100.00;100076.06;5039372;28;20460;-55
2020/12/01 05:03:43;;;;;;;0.20;0.10;;;;;;;1.81;100.00;100074.31;5047186;28;21015;-55
2020/12/01 05:06:53;;;;;;;0.20;0.10;;;;;;;1.90;100.00;100076.94;5037973;28;20460;-55
2020/12/01 05:09:15;;;;;;;0.20;0.10;;;;;;;1.96;100.00;100066.50;5044036;28;21083;-55
2020/12/01 05:11:56;;;;;;;0.20;0.10;;;;;;;1.95;100.00;100070.00;5053291;28;20535;-55
2020/12/01 05:14:28;;;;;;;0.20;0.10;;;;;;;1.93;100.00;100061.25;5052452;28;20474;-54
2020/12/01 05:17:25;;;;;;;0.20;0.10;;;;;;;1.97;100.00;100057.78;5051427;28;20536;-54
2020/12/01 05:19:51;;;;;;;0.20;0.10;;;;;;;2.00;100.00;100065.63;5048780;28;20484;-54
2020/12/01 05:22:19;;;;;;;0.20;0.10;;;;;;;2.11;100.00;100069.16;5071824;28;20453;-54
2020/12/01 05:24:48;;;;;;;0.20;0.10;;;;;;;2.12;100.00;100064.78;5039244;28;20465;-55
2020/12/01 05:27:24;;;;;;;0.20;0.20;;;;;;;2.18;100.00;100063.03;5044161;28;20919;-55
2020/12/01 05:30:04;;;;;;;0.20;0.10;;;;;;;2.17;100.00;100076.16;5048514;28;20532;-55
2020/12/01 05:32:37;;;;;;;0.20;0.10;;;;;;;2.14;100.00;100069.16;5072687;28;20472;-55
2020/12/01 05:35:17;;;;;;;0.20;0.10;;;;;;;2.08;100.00;100074.41;5076920;28;20888;-56
2020/12/01 05:37:59;;;;;;;0.30;0.20;;;;;;;2.07;100.00;100073.53;5059671;28;20850;-55
2020/12/01 05:40:28;;;;;;;0.20;0.10;;;;;;;2.14;100.00;100065.66;5065095;28;20864;-55
2020/12/01 05:42:55;;;;;;;0.20;0.10;;;;;;;2.17;100.00;100070.91;5075534;28;20450;-55
2020/12/01 05:45:27;;;;;;;0.20;0.20;;;;;;;2.23;100.00;100076.19;5073972;28;20461;-55
2020/12/01 05:48:09;;;;;;;0.20;0.10;;;;;;;2.20;100.00;100082.28;5075429;28;20491;-55
2020/12/01 05:51:06;;;;;;;0.20;0.10;;;;;;;2.23;100.00;100071.81;5069671;28;20460;-55
2020/12/01 05:53:33;;;;;;;0.20;0.10;;;;;;;2.17;100.00;100066.53;5074944;28;20947;-55
2020/12/01 05:56:08;;;;;;;0.20;0.10;;;;;;;2.25;100.00;100074.44;5075400;28;20446;-55
2020/12/01 05:58:42;;;;;;;0.20;0.10;;;;;;;2.22;100.00;100071.81;5074953;28;20954;-54
2020/12/01 06:01:09;;;;;;;0.20;0.10;;;;;;;2.33;100.00;100070.03;5053008;28;20467;-55
2020/12/01 06:03:54;;;;;;;0.20;0.10;;;;;;;2.31;100.00;100077.03;5048276;28;20464;-55
2020/12/01 06:06:28;;;;;;;0.20;0.10;;;;;;;2.28;100.00;100071.81;5074819;28;20442;-55
2020/12/01 06:08:58;;;;;;;0.20;0.10;;;;;;;2.26;100.00;100068.31;5074840;28;20532;-54
2020/12/01 06:11:46;;;;;;;0.20;0.10;;;;;;;2.29;100.00;100069.19;5056045;28;20454;-55
2020/12/01 06:14:36;;;;;;;0.20;0.10;;;;;;;2.28;100.00;100061.31;5074915;28;20793;-57
2020/12/01 06:17:11;;;;;;;0.20;0.10;;;;;;;2.27;100.00;100059.56;5074422;28;20462;-55
2020/12/01 06:19:51;;;;;;;0.20;0.20;;;;;;;2.31;100.00;100056.94;5074290;28;20438;-55
2020/12/01 06:22:19;;;;;;;0.20;0.10;;;;;;;2.28;100.00;100049.06;5074803;28;20453;-55
2020/12/01 06:24:45;;;;;;;0.30;0.20;;;;;;;2.24;100.00;100056.94;5075619;28;20449;-55
2020/12/01 06:27:33;;;;;;;0.20;0.20;;;;;;;2.21;100.00;100057.81;5059168;28;20482;-55
2020/12/01 06:30:22;;;;;;;0.20;0.10;;;;;;;2.17;100.00;100057.78;5075063;28;20538;-55
2020/12/01 06:33:13;;;;;;;0.20;0.10;;;;;;;2.13;100.00;100056.94;5074794;28;20499;-55
2020/12/01 06:36:00;;;;;;;0.20;0.10;;;;;;;2.13;100.00;100067.41;5073117;28;20499;-55
2020/12/01 06:39:04;;;;;;;0.20;0.10;;;;;;;2.12;100.00;100062.16;5054411;28;20517;-55
2020/12/01 06:41:35;;;;;;;0.20;0.10;;;;;;;2.18;100.00;100070.03;5036574;28;20459;-56
2020/12/01 06:44:07;;;;;;;0.20;0.10;;;;;;;2.23;100.00;100060.44;5070236;28;20446;-55
2020/12/01 06:46:49;;;;;;;0.20;0.10;;;;;;;2.24;100.00;100062.19;5074019;28;20589;-55
2020/12/01 06:49:32;;;;;;;0.20;0.10;;;;;;;2.16;100.00;100066.53;5074233;28;20867;-55
2020/12/01 06:52:12;;;;;;;0.20;0.10;;;;;;;2.13;100.00;100067.41;5067144;28;20447;-55
2020/12/01 06:54:55;;;;;;;0.20;0.10;;;;;;;2.12;100.00;100065.66;5058983;28;20943;-55
2020/12/01 06:57:24;;;;;;;0.20;0.10;;;;;;;2.15;100.00;100064.78;5074059;28;20473;-55
2020/12/01 06:59:50;;;;;;;0.20;0.10;;;;;;;2.17;100.00;100070.91;5074269;28;20441;-56
2020/12/01 07:02:44;;;;;;;0.20;0.10;;;;;;;2.15;100.00;100075.28;5055516;28;20465;-55
2020/12/01 07:05:31;;;;;;;0.30;0.30;;;;;;;2.14;100.00;100078.78;5073211;28;20438;-55
2020/12/01 07:07:57;;;;;;;0.20;0.10;;;;;;;2.16;100.00;100079.66;5073668;28;20465;-55
2020/12/01 07:10:32;;;;;;;0.20;0.10;;;;;;;2.17;100.00;100076.16;5074076;28;20501;-55
2020/12/01 07:13:33;;;;;;;0.20;0.10;;;;;;;2.23;100.00;100077.06;5073566;28;20502;-55
2020/12/01 07:16:22;;;;;;;0.20;0.10;;;;;;;2.23;100.00;100078.78;5073624;28;20434;-55
2020/12/01 07:18:55;;;;;;;0.20;0.10;;;;;;;2.20;100.00;100082.28;5074127;28;20836;-55
2020/12/01 07:21:37;;;;;;;0.20;0.10;;;;;;;2.23;100.00;100078.78;5068758;28;20991;-55
2020/12/01 07:24:34;;;;;;;0.30;0.10;;;;;;;2.20;100.00;100089.28;5067242;28;20450;-56
2020/12/01 07:27:10;;;;;;;0.20;0.10;;;;;;;2.20;100.00;100084.91;5073268;28;20979;-56
2020/12/01 07:30:04;;;;;;;0.20;0.10;;;;;;;2.23;100.00;100073.56;5073235;28;20543;-55
2020/12/01 07:32:44;;;;;;;0.20;0.10;;;;;;;2.28;100.00;100074.41;5073440;28;20495;-56
2020/12/01 07:35:40;;;;;;;0.20;0.10;;;;;;;2.28;100.00;100077.91;5073598;28;20445;-55
2020/12/01 07:38:31;;;;;;;0.20;0.10;;;;;;;2.32;100.00;100076.16;5043563;28;20498;-55
2020/12/01 07:41:25;;;;;;;0.20;0.10;;;;;;;2.27;100.00;100076.16;5047126;28;20450;-56
2020/12/01 07:44:11;;;;;;;0.20;0.20;;;;;;;2.28;100.00;100077.91;5058424;28;20952;-55
2020/12/01 07:49:18;;;;;;;0.20;0.10;;;;;;;2.32;100.00;100077.03;5072839;28;20492;-56
2020/12/01 07:51:47;;;;;;;0.20;0.10;;;;;;;2.34;100.00;100083.19;5072836;28;20450;-55
2020/12/01 07:54:25;;;;;;;0.20;0.10;;;;;;;2.32;100.00;100090.16;5072883;28;20446;-56
2020/12/01 07:56:51;;;;;;;0.20;0.10;;;;;;;2.41;100.00;100094.53;5072573;28;20756;-55
2020/12/01 07:59:17;;;;;;;0.20;0.10;;;;;;;2.48;100.00;100093.69;5073084;28;20488;-56
2020/12/01 08:01:45;;;;;;;0.20;0.10;;;;;;;2.48;100.00;100088.44;5054169;28;20469;-56
2020/12/01 08:04:14;;;;;;;0.20;0.10;;;;;;;2.54;100.00;100093.69;5072878;28;20876;-56
2020/12/01 08:06:41;;;;;;;0.20;0.10;;;;;;;2.52;100.00;100099.81;5072378;28;20477;-55
2020/12/01 08:09:19;;;;;;;0.20;0.10;;;;;;;2.52;100.00;100097.19;5072943;28;20535;-56
2020/12/01 08:11:47;;;;;;;0.20;0.20;;;;;;;2.50;100.00;100101.56;5071237;28;20451;-56
2020/12/01 08:14:15;;;;;;;0.20;0.10;;;;;;;2.59;100.00;100102.41;5072272;28;20804;-56
2020/12/01 08:16:43;;;;;;;0.20;0.10;;;;;;;2.55;100.00;100102.44;5057395;28;20485;-55
2020/12/01 08:19:11;;;;;;;0.20;0.10;;;;;;;2.56;100.00;100101.56;5072607;28;20528;-54
2020/12/01 08:21:43;;;;;;;0.20;0.10;;;;;;;2.59;100.00;100107.66;5072709;28;20503;-56
2020/12/01 08:24:16;;;;;;;0.20;0.10;;;;;;;2.54;100.00;100106.81;5072352;28;20450;-54
2020/12/01 08:26:45;;;;;;;0.30;0.20;;;;;;;2.59;100.00;100109.41;5072493;28;20827;-54
2020/12/01 08:29:15;;;;;;;0.20;0.20;;;;;;;2.64;100.00;100103.31;5072488;28;20542;-54
2020/12/01 08:31:48;;;;;;;0.20;0.10;;;;;;;2.68;100.00;100101.56;5072703;28;20442;-54
2020/12/01 08:34:22;;;;;;;0.20;0.10;;;;;;;2.66;100.00;100105.94;5072281;28;20450;-54
2020/12/01 08:37:03;;;;;;;0.20;0.10;;;;;;;2.60;100.00;100109.44;5055777;28;20479;-55
2020/12/01 08:39:50;;;;;;;0.30;0.20;;;;;;;2.59;100.00;100107.66;5041645;28;20957;-54
2020/12/01 08:42:40;;;;;;;0.20;0.10;;;;;;;2.67;100.00;100120.81;5066939;28;20511;-54
2020/12/01 08:45:09;;;;;;;0.20;0.10;;;;;;;2.69;100.00;100108.56;5069452;28;20446;-55
2020/12/01 08:47:36;;;;;;;0.20;0.10;;;;;;;2.75;100.00;100118.19;5072134;28;20966;-54
2020/12/01 08:50:19;;;;;;;0.20;0.10;;;;;;;2.81;100.00;100115.56;5071536;28;20582;-55
2020/12/01 08:52:46;;;;;;;0.20;0.10;;;;;;;2.79;100.00;100119.94;5072504;28;20445;-55
2020/12/01 08:55:20;;;;;;;0.20;0.13;;;;;;;2.70;100.00;100126.03;5067095;28;20465;-55
2020/12/01 08:57:50;;;;;;;0.20;0.10;;;;;;;2.77;100.00;100133.06;5071666;28;20462;-55
2020/12/01 09:00:23;;;;;;;0.20;0.10;;;;;;;2.80;100.00;100126.94;5071906;28;20533;-54
2020/12/01 09:02:51;;;;;;;0.20;0.10;;;;;;;2.88;100.00;100123.44;5072642;28;20820;-55
2020/12/01 09:05:20;;;;;;;0.20;0.10;;;;;;;2.87;100.00;100124.28;5072095;28;20476;-54
2020/12/01 09:07:48;;;;;;;0.20;0.10;;;;;;;2.91;100.00;100128.69;5072046;28;20516;-54
2020/12/01 09:10:23;;;;;;;0.20;0.10;;;;;;;3.02;100.00;100135.69;5071863;28;20893;-55
2020/12/01 09:13:27;;;;;;;0.20;0.10;;;;;;;2.96;100.00;100140.06;5071758;28;20442;-55
2020/12/01 09:24:16;;;;;;;0.20;0.10;;;;;;;2.90;100.00;100144.44;5071906;28;20446;-55
2020/12/01 09:26:43;;;;;;;0.20;0.10;;;;;;;2.91;100.00;100138.31;5054752;28;20501;-55
2020/12/01 09:29:09;;;;;;;0.97;0.97;;;;;;;2.86;100.00;100148.78;5057277;28;20486;-55
2020/12/01 09:31:38;;;;;;;0.20;0.10;;;;;;;2.86;100.00;100146.16;5071364;28;20446;-55
2020/12/01 09:34:04;;;;;;;0.20;0.10;;;;;;;2.98;100.00;100137.41;5067221;28;20507;-55
2020/12/01 09:36:30;;;;;;;0.20;0.10;;;;;;;2.97;100.00;100139.16;5044724;28;20451;-55
2020/12/01 09:38:56;;;;;;;0.20;0.10;;;;;;;2.97;100.00;100140.91;5068486;28;20463;-55
2020/12/01 09:41:24;;;;;;;0.20;0.10;;;;;;;3.10;100.00;100139.16;5060250;28;20489;-55
2020/12/01 09:44:04;;;;;;;0.20;0.10;;;;;;;3.13;100.00;100136.53;5069966;28;20506;-55
2020/12/01 09:46:38;;;;;;;0.20;0.10;;;;;;;3.14;100.00;100135.66;5071439;28;20465;-55
2020/12/01 09:49:04;;;;;;;0.20;0.10;;;;;;;3.22;100.00;100140.03;5071566;28;20499;-54
2020/12/01 09:51:31;;;;;;;0.20;0.10;;;;;;;3.31;100.00;100136.53;5071474;28;20532;-55
2020/12/01 09:56:51;;;;;;;0.23;0.10;;;;;;;3.49;100.00;100141.72;5063474;28;20484;-55
2020/12/01 10:35:38;;;;;;;0.20;0.10;;;;;;;4.01;100.00;100143.31;5066143;28;20442;-54
2020/12/01 10:38:04;;;;;;;0.20;0.20;;;;;;;3.98;100.00;100140.72;5054507;28;20514;-54
2020/12/01 10:40:30;;;;;;;5.17;4.80;;;;;;;3.94;100.00;100144.22;5070521;28;20955;-54
2020/12/01 10:42:57;;;;;;;0.20;0.10;;;;;;;4.06;100.00;100138.91;5074745;28;20446;-54
2020/12/01 10:45:26;;;;;;;0.20;0.20;;;;;;;3.98;100.00;100145.97;5072873;28;20537;-54
2020/12/01 10:47:52;;;;;;;0.20;0.20;;;;;;;3.96;100.00;100138.06;5074061;28;20837;-55
2020/12/01 10:50:23;;;;;;;0.23;0.10;;;;;;;3.86;100.00;100145.13;5074119;28;21006;-55
2020/12/01 10:52:49;;;;;;;0.20;0.10;;;;;;;3.83;100.00;100142.50;5074473;28;20446;-54
2020/12/01 10:55:21;;;;;;;0.73;0.73;;;;;;;3.79;100.00;100148.66;5069456;28;20470;-54
2020/12/01 10:57:55;;;;;;;0.20;0.10;;;;;;;3.80;100.00;100150.41;5074434;28;20540;-55
2020/12/01 11:00:24;;;;;;;0.20;0.10;;;;;;;3.78;100.00;100152.16;5074155;28;20939;-55
2020/12/01 11:02:50;;;;;;;0.20;0.10;;;;;;;3.83;100.00;100147.75;5074077;28;20446;-55
2020/12/01 11:05:25;;;;;;;0.20;0.10;;;;;;;3.96;100.00;100147.69;5073856;28;20816;-55
2020/12/01 11:07:51;;;;;;;0.20;0.10;;;;;;;3.99;100.00;100153.84;5073702;28;20468;-54
2020/12/01 11:10:18;;;;;;;0.20;0.10;;;;;;;3.91;100.00;100153.00;5073848;28;21063;-55
2020/12/01 11:12:44;;;;;;;0.23;0.13;;;;;;;3.89;100.00;100149.50;5073872;28;20453;-55
2020/12/01 11:15:11;;;;;;;0.20;0.10;;;;;;;3.82;100.00;100148.63;5063057;28;20469;-55
2020/12/01 11:17:37;;;;;;;0.20;0.10;;;;;;;3.88;100.00;100152.13;5073485;28;20474;-54
2020/12/01 11:20:06;;;;;;;0.20;0.10;;;;;;;3.83;100.00;100154.75;5073893;28;20445;-54
2020/12/01 11:22:33;;;;;;;0.20;0.10;;;;;;;3.72;100.00;100152.19;5073392;28;20461;-55
2020/12/01 11:24:59;;;;;;;0.20;0.10;;;;;;;3.82;100.00;100155.66;5073508;28;20445;-55
2020/12/01 11:27:25;;;;;;;0.20;0.10;;;;;;;3.77;100.00;100155.66;5073751;28;20477;-54
2020/12/01 11:29:51;;;;;;;0.20;0.20;;;;;;;3.74;100.00;100158.31;5073745;28;21061;-55
2020/12/01 11:32:18;;;;;;;0.20;0.10;;;;;;;3.64;100.00;100161.84;5073089;28;20450;-55
2020/12/01 11:34:44;;;;;;;0.20;0.17;;;;;;;3.66;100.00;100160.06;5058924;28;20466;-55
2020/12/01 11:37:10;;;;;;;0.20;0.10;;;;;;;3.78;100.00;100160.03;5060275;28;20470;-55
2020/12/01 11:39:36;;;;;;;0.20;0.10;;;;;;;3.84;100.00;100154.78;5062138;28;20862;-55
2020/12/01 11:42:03;;;;;;;0.20;0.10;;;;;;;3.93;100.00;100160.88;5072060;28;20449;-55
2020/12/01 11:44:29;;;;;;;0.20;0.10;;;;;;;3.92;100.00;100160.00;5071886;28;20454;-55
2020/12/01 11:46:56;;;;;;;0.20;0.10;;;;;;;3.98;100.00;100160.00;5072944;28;20527;-55
2020/12/01 11:49:24;;;;;;;0.20;0.10;;;;;;;4.00;100.00;100162.63;5061627;28;20540;-55
2020/12/01 11:51:50;;;;;;;0.20;0.13;;;;;;;4.15;100.00;100167.81;5072997;28;20499;-55
2020/12/01 11:54:16;;;;;;;0.20;0.10;;;;;;;4.06;100.00;100167.81;5073302;28;20454;-55
2020/12/01 11:56:43;;;;;;;0.20;0.10;;;;;;;4.08;100.00;100153.78;5072800;28;20465;-55
2020/12/01 11:59:09;;;;;;;0.20;0.10;;;;;;;4.18;100.00;100159.00;5072657;28;20442;-55
2020/12/01 12:01:35;;;;;;;0.20;0.10;;;;;;;4.29;100.00;100158.09;5072638;28;20992;-56
2020/12/01 12:04:06;;;;;;;0.20;0.20;;;;;;;4.22;100.00;100164.25;5065890;28;20461;-55
2020/12/01 12:06:35;;;;;;;0.20;0.20;;;;;;;4.23;100.00;100160.72;5072626;28;20453;-55
2020/12/01 12:09:07;;;;;;;0.20;0.10;;;;;;;4.29;100.00;100158.09;5065268;28;20489;-55
2020/12/01 12:11:34;;;;;;;0.20;0.10;;;;;;;4.65;100.00;100162.22;5072489;28;20437;-55
2020/12/01 12:14:00;;;;;;;0.30;0.20;;;;;;;4.62;100.00;100159.63;5072896;28;20449;-56
2020/12/01 12:16:27;;;;;;;0.20;0.10;;;;;;;4.58;100.00;100159.66;5072408;28;20454;-55
2020/12/01 12:18:53;;;;;;;0.20;0.10;;;;;;;4.70;100.00;100157.84;5072892;28;20449;-55
2020/12/01 12:21:20;;;;;;;0.20;0.10;;;;;;;4.68;100.00;100161.38;5072389;28;20453;-55
2020/12/01 12:23:47;;;;;;;0.20;0.10;;;;;;;4.79;100.00;100159.50;5068441;28;20464;-56
2020/12/01 12:26:14;;;;;;;0.20;0.10;;;;;;;4.88;100.00;100158.56;5070855;28;20453;-55
2020/12/01 12:28:40;;;;;;;0.20;0.20;;;;;;;4.62;100.00;100154.38;5072271;28;20503;-56
2020/12/01 12:31:08;;;;;;;1.53;1.43;;;;;;;4.56;100.00;100154.41;5072465;28;20454;-56
2020/12/01 12:33:34;;;;;;;0.30;0.20;;;;;;;4.40;100.00;100160.66;5071779;28;20457;-56